sensor_id;sensor_type;location;lat;lon;timestamp;pressure;altitude;pressure_sealevel;temperature;humidity
64095;BME280;50353;51.420;5.682;2022-12-07T00:01:08;101529.16;;;5.46;93.85
64095;BME280;50353;51.420;5.682;2022-12-07T00:03:34;101531.69;;;5.49;92.79
64095;BME280;50353;51.420;5.682;2022-12-07T00:06:00;101529.69;;;5.59;92.26
64095;BME280;50353;51.420;5.682;2022-12-07T00:08:27;101543.53;;;5.64;91.98
64095;BME280;50353;51.420;5.682;2022-12-07T00:10:52;101537.97;;;5.44;92.68
64095;BME280;50353;51.420;5.682;2022-12-07T00:13:17;101535.16;;;5.18;93.73
64095;BME280;50353;51.420;5.682;2022-12-07T00:15:43;101530.94;;;5.46;92.59
64095;BME280;50353;51.420;5.682;2022-12-07T00:18:09;101529.91;;;5.51;91.77
64095;BME280;50353;51.420;5.682;2022-12-07T00:20:34;101522.00;;;5.53;92.08
64095;BME280;50353;51.420;5.682;2022-12-07T00:22:59;101522.81;;;5.55;91.50
64095;BME280;50353;51.420;5.682;2022-12-07T00:25:25;101522.81;;;5.55;91.55
64095;BME280;50353;51.420;5.682;2022-12-07T00:27:53;101516.88;;;5.48;91.51
64095;BME280;50353;51.420;5.682;2022-12-07T00:30:20;101524.00;;;5.43;91.47
64095;BME280;50353;51.420;5.682;2022-12-07T00:32:46;101522.72;;;4.92;91.63
64095;BME280;50353;51.420;5.682;2022-12-07T00:35:11;101516.34;;;5.02;91.89
64095;BME280;50353;51.420;5.682;2022-12-07T00:37:36;101524.72;;;5.17;92.29
64095;BME280;50353;51.420;5.682;2022-12-07T00:40:01;101521.09;;;4.88;92.07
64095;BME280;50353;51.420;5.682;2022-12-07T00:42:27;101517.25;;;5.01;92.07
64095;BME280;50353;51.420;5.682;2022-12-07T00:44:52;101519.97;;;4.98;91.71
64095;BME280;50353;51.420;5.682;2022-12-07T00:47:17;101509.28;;;5.06;91.76
64095;BME280;50353;51.420;5.682;2022-12-07T00:49:43;101518.84;;;5.08;91.16
64095;BME280;50353;51.420;5.682;2022-12-07T00:52:08;101508.34;;;5.08;92.37
64095;BME280;50353;51.420;5.682;2022-12-07T00:54:33;101510.38;;;4.97;91.82
64095;BME280;50353;51.420;5.682;2022-12-07T00:56:58;101508.44;;;4.71;91.05
64095;BME280;50353;51.420;5.682;2022-12-07T00:59:24;101506.44;;;4.81;91.80
64095;BME280;50353;51.420;5.682;2022-12-07T01:01:49;101504.22;;;4.65;92.19
64095;BME280;50353;51.420;5.682;2022-12-07T01:04:14;101500.31;;;4.82;91.00
64095;BME280;50353;51.420;5.682;2022-12-07T01:06:40;101505.81;;;4.71;91.25
64095;BME280;50353;51.420;5.682;2022-12-07T01:09:05;101500.75;;;4.63;91.71
64095;BME280;50353;51.420;5.682;2022-12-07T01:11:31;101503.09;;;4.74;90.72
64095;BME280;50353;51.420;5.682;2022-12-07T01:13:58;101498.38;;;4.88;90.55
64095;BME280;50353;51.420;5.682;2022-12-07T01:16:26;101507.88;;;4.56;91.29
64095;BME280;50353;51.420;5.682;2022-12-07T01:18:53;101506.91;;;4.61;90.88
64095;BME280;50353;51.420;5.682;2022-12-07T01:21:22;101506.91;;;4.62;90.94
64095;BME280;50353;51.420;5.682;2022-12-07T01:23:49;101518.63;;;4.46;91.77
64095;BME280;50353;51.420;5.682;2022-12-07T01:26:17;101511.25;;;4.62;91.69
64095;BME280;50353;51.420;5.682;2022-12-07T01:28:43;101511.97;;;4.68;91.11
64095;BME280;50353;51.420;5.682;2022-12-07T01:31:12;101502.22;;;4.75;91.50
64095;BME280;50353;51.420;5.682;2022-12-07T01:33:40;101510.78;;;4.82;91.45
64095;BME280;50353;51.420;5.682;2022-12-07T01:36:26;101512.41;;;4.86;91.53
64095;BME280;50353;51.420;5.682;2022-12-07T01:38:56;101502.41;;;4.67;92.51
64095;BME280;50353;51.420;5.682;2022-12-07T01:41:23;101510.06;;;4.75;92.85
64095;BME280;50353;51.420;5.682;2022-12-07T01:44:18;101516.53;;;4.95;92.01
64095;BME280;50353;51.420;5.682;2022-12-07T01:46:45;101504.44;;;4.90;92.05
64095;BME280;50353;51.420;5.682;2022-12-07T01:49:16;101505.84;;;5.04;91.41
64095;BME280;50353;51.420;5.682;2022-12-07T01:51:43;101517.44;;;4.95;91.80
64095;BME280;50353;51.420;5.682;2022-12-07T01:54:12;101511.13;;;5.02;92.04
64095;BME280;50353;51.420;5.682;2022-12-07T01:56:43;101504.19;;;5.00;92.67
64095;BME280;50353;51.420;5.682;2022-12-07T01:59:12;101505.09;;;4.99;91.81
64095;BME280;50353;51.420;5.682;2022-12-07T02:01:38;101509.28;;;5.06;91.73
64095;BME280;50353;51.420;5.682;2022-12-07T02:04:04;101511.22;;;4.99;91.28
64095;BME280;50353;51.420;5.682;2022-12-07T02:06:31;101512.38;;;4.53;93.81
64095;BME280;50353;51.420;5.682;2022-12-07T02:08:56;101504.03;;;4.71;95.18
64095;BME280;50353;51.420;5.682;2022-12-07T02:11:21;101498.44;;;4.87;93.75
64095;BME280;50353;51.420;5.682;2022-12-07T02:13:47;101498.16;;;4.96;93.11
64095;BME280;50353;51.420;5.682;2022-12-07T02:16:31;101495.41;;;5.02;92.23
64095;BME280;50353;51.420;5.682;2022-12-07T02:19:23;101497.44;;;4.91;92.95
64095;BME280;50353;51.420;5.682;2022-12-07T02:22:00;101498.56;;;4.81;93.00
64095;BME280;50353;51.420;5.682;2022-12-07T02:24:45;101491.19;;;4.97;92.38
64095;BME280;50353;51.420;5.682;2022-12-07T02:30:20;101494.56;;;5.00;92.35
64095;BME280;50353;51.420;5.682;2022-12-07T02:33:09;101496.19;;;5.04;93.39
64095;BME280;50353;51.420;5.682;2022-12-07T02:38:25;101488.28;;;5.07;92.04
64095;BME280;50353;51.420;5.682;2022-12-07T02:40:54;101491.88;;;5.03;93.08
64095;BME280;50353;51.420;5.682;2022-12-07T02:43:47;101490.00;;;5.08;92.54
64095;BME280;50353;51.420;5.682;2022-12-07T02:46:20;101490.28;;;4.63;93.62
64095;BME280;50353;51.420;5.682;2022-12-07T02:48:47;101485.50;;;4.79;93.25
64095;BME280;50353;51.420;5.682;2022-12-07T02:51:12;101495.63;;;4.93;93.31
64095;BME280;50353;51.420;5.682;2022-12-07T02:53:41;101491.47;;;4.86;92.34
64095;BME280;50353;51.420;5.682;2022-12-07T02:56:09;101487.88;;;4.90;91.26
64095;BME280;50353;51.420;5.682;2022-12-07T02:59:02;101487.03;;;4.88;91.37
64095;BME280;50353;51.420;5.682;2022-12-07T03:07:17;101497.72;;;4.44;92.79
64095;BME280;50353;51.420;5.682;2022-12-07T03:12:20;101495.06;;;4.46;92.03
64095;BME280;50353;51.420;5.682;2022-12-07T03:14:58;101498.97;;;4.65;92.62
64095;BME280;50353;51.420;5.682;2022-12-07T03:17:27;101498.75;;;4.73;92.25
64095;BME280;50353;51.420;5.682;2022-12-07T03:19:56;101489.25;;;4.69;92.08
64095;BME280;50353;51.420;5.682;2022-12-07T03:22:23;101490.22;;;4.66;92.80
64095;BME280;50353;51.420;5.682;2022-12-07T03:24:52;101492.63;;;4.74;92.22
64095;BME280;50353;51.420;5.682;2022-12-07T03:27:20;101493.59;;;4.70;92.17
64095;BME280;50353;51.420;5.682;2022-12-07T03:29:51;101482.38;;;4.65;92.06
64095;BME280;50353;51.420;5.682;2022-12-07T03:35:36;101489.53;;;4.58;92.01
64095;BME280;50353;51.420;5.682;2022-12-07T03:38:13;101492.59;;;4.39;93.77
64095;BME280;50353;51.420;5.682;2022-12-07T03:40:47;101496.38;;;4.64;92.68
64095;BME280;50353;51.420;5.682;2022-12-07T03:43:15;101491.78;;;4.73;93.22
64095;BME280;50353;51.420;5.682;2022-12-07T03:45:44;101475.97;;;4.77;92.18
64095;BME280;50353;51.420;5.682;2022-12-07T03:53:34;101480.31;;;4.78;93.46
64095;BME280;50353;51.420;5.682;2022-12-07T03:56:02;101481.03;;;4.84;93.43
64095;BME280;50353;51.420;5.682;2022-12-07T03:58:29;101495.56;;;4.62;95.30
64095;BME280;50353;51.420;5.682;2022-12-07T04:00:55;101502.34;;;4.33;96.77
64095;BME280;50353;51.420;5.682;2022-12-07T04:03:20;101501.31;;;4.40;96.90
64095;BME280;50353;51.420;5.682;2022-12-07T04:05:46;101498.56;;;4.46;96.82
64095;BME280;50353;51.420;5.682;2022-12-07T04:08:12;101496.75;;;4.48;96.91
64095;BME280;50353;51.420;5.682;2022-12-07T04:10:37;101495.91;;;4.48;96.68
64095;BME280;50353;51.420;5.682;2022-12-07T04:13:02;101487.75;;;4.60;96.50
64095;BME280;50353;51.420;5.682;2022-12-07T04:15:28;101491.72;;;4.75;95.10
64095;BME280;50353;51.420;5.682;2022-12-07T04:17:53;101485.66;;;4.73;95.37
64095;BME280;50353;51.420;5.682;2022-12-07T04:20:19;101482.81;;;4.82;94.96
64095;BME280;50353;51.420;5.682;2022-12-07T04:22:44;101485.44;;;4.82;94.93
64095;BME280;50353;51.420;5.682;2022-12-07T04:25:09;101482.31;;;4.68;96.28
64095;BME280;50353;51.420;5.682;2022-12-07T04:27:35;101487.00;;;4.89;94.37
64095;BME280;50353;51.420;5.682;2022-12-07T04:30:00;101481.47;;;5.00;94.07
64095;BME280;50353;51.420;5.682;2022-12-07T04:32:25;101485.38;;;4.84;95.01
64095;BME280;50353;51.420;5.682;2022-12-07T04:34:50;101479.16;;;4.88;95.72
64095;BME280;50353;51.420;5.682;2022-12-07T04:37:16;101481.72;;;4.56;96.72
64095;BME280;50353;51.420;5.682;2022-12-07T04:39:42;101482.94;;;4.78;96.01
64095;BME280;50353;51.420;5.682;2022-12-07T04:42:10;101471.28;;;4.89;95.60
64095;BME280;50353;51.420;5.682;2022-12-07T04:44:35;101471.34;;;4.86;95.75
64095;BME280;50353;51.420;5.682;2022-12-07T04:47:00;101470.09;;;5.01;95.07
64095;BME280;50353;51.420;5.682;2022-12-07T04:49:26;101472.41;;;4.79;95.93
64095;BME280;50353;51.420;5.682;2022-12-07T04:51:51;101471.28;;;4.89;95.85
64095;BME280;50353;51.420;5.682;2022-12-07T04:54:17;101468.88;;;4.82;96.14
64095;BME280;50353;51.420;5.682;2022-12-07T04:56:43;101464.19;;;4.93;95.55
64095;BME280;50353;51.420;5.682;2022-12-07T04:59:10;101476.44;;;4.93;95.10
64095;BME280;50353;51.420;5.682;2022-12-07T05:01:36;101470.28;;;4.95;95.01
64095;BME280;50353;51.420;5.682;2022-12-07T05:04:01;101467.78;;;4.89;94.95
64095;BME280;50353;51.420;5.682;2022-12-07T05:06:26;101462.50;;;4.90;94.91
64095;BME280;50353;51.420;5.682;2022-12-07T05:08:52;101460.03;;;4.86;95.14
64095;BME280;50353;51.420;5.682;2022-12-07T05:11:17;101455.50;;;4.93;95.35
64095;BME280;50353;51.420;5.682;2022-12-07T05:14:03;101455.13;;;4.73;95.74
64095;BME280;50353;51.420;5.682;2022-12-07T05:16:29;101463.59;;;4.83;95.25
64095;BME280;50353;51.420;5.682;2022-12-07T05:18:54;101471.56;;;4.79;95.72
64095;BME280;50353;51.420;5.682;2022-12-07T05:21:20;101474.91;;;4.84;95.68
64095;BME280;50353;51.420;5.682;2022-12-07T05:23:45;101470.41;;;4.89;95.55
64095;BME280;50353;51.420;5.682;2022-12-07T05:26:10;101469.63;;;4.87;95.31
64095;BME280;50353;51.420;5.682;2022-12-07T05:28:36;101470.66;;;4.80;95.37
64095;BME280;50353;51.420;5.682;2022-12-07T05:31:01;101476.72;;;4.82;95.50
64095;BME280;50353;51.420;5.682;2022-12-07T05:33:26;101467.09;;;4.82;95.05
64095;BME280;50353;51.420;5.682;2022-12-07T05:35:52;101468.97;;;4.79;94.86
64095;BME280;50353;51.420;5.682;2022-12-07T05:38:17;101473.91;;;4.55;95.56
64095;BME280;50353;51.420;5.682;2022-12-07T05:40:42;101468.34;;;4.67;95.55
64095;BME280;50353;51.420;5.682;2022-12-07T05:43:08;101458.84;;;4.63;94.91
64095;BME280;50353;51.420;5.682;2022-12-07T05:45:33;101467.63;;;4.62;94.78
64095;BME280;50353;51.420;5.682;2022-12-07T05:47:58;101462.41;;;4.61;94.59
64095;BME280;50353;51.420;5.682;2022-12-07T05:50:24;101456.53;;;4.51;94.77
64095;BME280;50353;51.420;5.682;2022-12-07T05:52:49;101454.50;;;4.64;94.56
64095;BME280;50353;51.420;5.682;2022-12-07T05:55:14;101453.03;;;4.52;94.54
64095;BME280;50353;51.420;5.682;2022-12-07T05:57:40;101445.75;;;4.63;94.44
64095;BME280;50353;51.420;5.682;2022-12-07T06:00:25;101452.16;;;4.53;94.01
64095;BME280;50353;51.420;5.682;2022-12-07T06:02:50;101454.81;;;4.50;93.60
64095;BME280;50353;51.420;5.682;2022-12-07T06:05:15;101455.84;;;4.44;93.80
64095;BME280;50353;51.420;5.682;2022-12-07T06:07:41;101460.97;;;4.49;93.93
64095;BME280;50353;51.420;5.682;2022-12-07T06:10:06;101461.69;;;4.55;93.54
64095;BME280;50353;51.420;5.682;2022-12-07T06:12:32;101454.72;;;4.54;93.83
64095;BME280;50353;51.420;5.682;2022-12-07T06:15:00;101462.31;;;4.65;93.93
64095;BME280;50353;51.420;5.682;2022-12-07T06:17:25;101460.56;;;4.64;92.95
64095;BME280;50353;51.420;5.682;2022-12-07T06:19:50;101458.97;;;4.59;93.63
64095;BME280;50353;51.420;5.682;2022-12-07T06:22:16;101461.69;;;4.55;93.36
64095;BME280;50353;51.420;5.682;2022-12-07T06:24:41;101460.66;;;4.61;93.14
64095;BME280;50353;51.420;5.682;2022-12-07T06:27:08;101456.31;;;4.60;93.57
64095;BME280;50353;51.420;5.682;2022-12-07T06:29:33;101464.25;;;4.57;93.50
64095;BME280;50353;51.420;5.682;2022-12-07T06:31:59;101471.38;;;4.52;93.81
64095;BME280;50353;51.420;5.682;2022-12-07T06:34:25;101463.63;;;4.47;93.48
64095;BME280;50353;51.420;5.682;2022-12-07T06:36:51;101464.47;;;4.48;93.79
64095;BME280;50353;51.420;5.682;2022-12-07T06:39:18;101458.41;;;4.46;93.65
64095;BME280;50353;51.420;5.682;2022-12-07T06:41:44;101460.19;;;4.45;93.26
64095;BME280;50353;51.420;5.682;2022-12-07T06:44:10;101459.34;;;4.45;93.41
64095;BME280;50353;51.420;5.682;2022-12-07T06:46:35;101465.56;;;4.39;93.13
64095;BME280;50353;51.420;5.682;2022-12-07T06:49:01;101460.31;;;4.40;92.49
64095;BME280;50353;51.420;5.682;2022-12-07T06:51:26;101466.34;;;4.43;91.87
64095;BME280;50353;51.420;5.682;2022-12-07T06:53:51;101463.13;;;4.31;92.36
64095;BME280;50353;51.420;5.682;2022-12-07T06:56:17;101461.25;;;4.38;91.49
64095;BME280;50353;51.420;5.682;2022-12-07T06:58:42;101465.72;;;4.33;92.21
64095;BME280;50353;51.420;5.682;2022-12-07T07:01:12;101468.47;;;4.28;93.09
64095;BME280;50353;51.420;5.682;2022-12-07T07:03:38;101465.75;;;4.31;91.89
64095;BME280;50353;51.420;5.682;2022-12-07T07:06:04;101470.91;;;4.34;92.88
64095;BME280;50353;51.420;5.682;2022-12-07T07:08:30;101473.84;;;4.20;92.68
64095;BME280;50353;51.420;5.682;2022-12-07T07:10:55;101477.28;;;4.22;92.85
64095;BME280;50353;51.420;5.682;2022-12-07T07:13:21;101467.50;;;4.31;93.18
64095;BME280;50353;51.420;5.682;2022-12-07T07:15:46;101470.13;;;4.31;93.02
64095;BME280;50353;51.420;5.682;2022-12-07T07:18:11;101470.03;;;4.35;93.65
64095;BME280;50353;51.420;5.682;2022-12-07T07:20:37;101472.34;;;4.48;91.93
64095;BME280;50353;51.420;5.682;2022-12-07T07:23:02;101475.63;;;4.56;91.67
64095;BME280;50353;51.420;5.682;2022-12-07T07:25:28;101466.16;;;4.50;92.67
64095;BME280;50353;51.420;5.682;2022-12-07T07:27:53;101470.72;;;4.42;92.68
64095;BME280;50353;51.420;5.682;2022-12-07T07:30:18;101473.53;;;4.34;92.84
64095;BME280;50353;51.420;5.682;2022-12-07T07:32:44;101472.81;;;4.28;92.60
64095;BME280;50353;51.420;5.682;2022-12-07T07:35:09;101472.78;;;4.29;93.19
64095;BME280;50353;51.420;5.682;2022-12-07T07:37:34;101474.41;;;4.33;91.67
64095;BME280;50353;51.420;5.682;2022-12-07T07:39:59;101472.34;;;4.48;91.30
64095;BME280;50353;51.420;5.682;2022-12-07T07:42:25;101475.34;;;4.31;92.46
64095;BME280;50353;51.420;5.682;2022-12-07T07:44:50;101471.75;;;4.36;92.50
64095;BME280;50353;51.420;5.682;2022-12-07T07:47:15;101473.31;;;4.44;92.42
64095;BME280;50353;51.420;5.682;2022-12-07T07:49:41;101476.72;;;4.46;92.17
64095;BME280;50353;51.420;5.682;2022-12-07T07:52:06;101477.72;;;4.42;92.55
64095;BME280;50353;51.420;5.682;2022-12-07T07:54:31;101477.75;;;4.40;92.09
64095;BME280;50353;51.420;5.682;2022-12-07T07:56:57;101487.88;;;4.18;93.25
64095;BME280;50353;51.420;5.682;2022-12-07T07:59:22;101475.09;;;4.42;92.48
64095;BME280;50353;51.420;5.682;2022-12-07T08:01:48;101484.63;;;4.44;92.87
64095;BME280;50353;51.420;5.682;2022-12-07T08:04:13;101479.44;;;4.43;92.16
64095;BME280;50353;51.420;5.682;2022-12-07T08:06:38;101483.88;;;4.40;92.82
64095;BME280;50353;51.420;5.682;2022-12-07T08:09:03;101489.06;;;4.42;92.58
64095;BME280;50353;51.420;5.682;2022-12-07T08:11:31;101485.72;;;4.35;93.35
64095;BME280;50353;51.420;5.682;2022-12-07T08:13:56;101489.06;;;4.42;92.93
64095;BME280;50353;51.420;5.682;2022-12-07T08:16:21;101488.16;;;4.43;93.49
64095;BME280;50353;51.420;5.682;2022-12-07T08:18:46;101488.13;;;4.45;93.97
64095;BME280;50353;51.420;5.682;2022-12-07T08:21:14;101488.56;;;4.62;92.54
64095;BME280;50353;51.420;5.682;2022-12-07T08:23:41;101490.22;;;4.65;92.49
64095;BME280;50353;51.420;5.682;2022-12-07T08:26:10;101492.00;;;4.64;91.79
64095;BME280;50353;51.420;5.682;2022-12-07T08:28:36;101492.72;;;4.71;91.48
64095;BME280;50353;51.420;5.682;2022-12-07T08:31:05;101495.41;;;4.68;91.03
64095;BME280;50353;51.420;5.682;2022-12-07T08:33:31;101495.28;;;4.72;91.75
64095;BME280;50353;51.420;5.682;2022-12-07T08:36:08;101502.41;;;4.67;90.81
64095;BME280;50353;51.420;5.682;2022-12-07T08:38:38;101505.53;;;4.47;92.63
64095;BME280;50353;51.420;5.682;2022-12-07T08:41:04;101507.94;;;4.55;92.15
64095;BME280;50353;51.420;5.682;2022-12-07T08:43:30;101502.63;;;4.58;91.89
64095;BME280;50353;51.420;5.682;2022-12-07T08:46:18;101504.56;;;4.86;90.44
64095;BME280;50353;51.420;5.682;2022-12-07T08:48:50;101498.66;;;4.78;91.13
64095;BME280;50353;51.420;5.682;2022-12-07T08:51:16;101501.75;;;4.57;92.44
64095;BME280;50353;51.420;5.682;2022-12-07T08:53:42;101500.44;;;4.76;90.76
64095;BME280;50353;51.420;5.682;2022-12-07T08:56:08;101502.69;;;4.91;90.56
64095;BME280;50353;51.420;5.682;2022-12-07T08:58:35;101490.19;;;5.01;90.25
64095;BME280;50353;51.420;5.682;2022-12-07T09:01:02;101501.78;;;5.25;89.69
64095;BME280;50353;51.420;5.682;2022-12-07T09:03:28;101494.94;;;5.19;88.21
64095;BME280;50353;51.420;5.682;2022-12-07T09:05:54;101496.94;;;5.10;90.12
64095;BME280;50353;51.420;5.682;2022-12-07T09:08:21;101491.31;;;5.23;89.33
64095;BME280;50353;51.420;5.682;2022-12-07T09:10:47;101493.88;;;5.27;89.86
64095;BME280;50353;51.420;5.682;2022-12-07T09:13:13;101483.44;;;5.25;91.08
64095;BME280;50353;51.420;5.682;2022-12-07T09:15:38;101490.28;;;5.31;90.53
64095;BME280;50353;51.420;5.682;2022-12-07T09:18:03;101495.81;;;5.20;92.18
64095;BME280;50353;51.420;5.682;2022-12-07T09:20:28;101496.19;;;5.06;93.25
64095;BME280;50353;51.420;5.682;2022-12-07T09:22:54;101498.09;;;4.99;94.05
64095;BME280;50353;51.420;5.682;2022-12-07T09:25:19;101495.97;;;5.14;92.85
64095;BME280;50353;51.420;5.682;2022-12-07T09:27:44;101501.38;;;5.07;93.56
64095;BME280;50353;51.420;5.682;2022-12-07T09:30:10;101499.50;;;5.13;93.86
64095;BME280;50353;51.420;5.682;2022-12-07T09:32:35;101497.31;;;5.29;92.92
64095;BME280;50353;51.420;5.682;2022-12-07T09:35:00;101500.22;;;5.18;93.99
64095;BME280;50353;51.420;5.682;2022-12-07T09:37:25;101504.41;;;5.25;93.94
64095;BME280;50353;51.420;5.682;2022-12-07T09:39:51;101511.53;;;5.20;93.83
64095;BME280;50353;51.420;5.682;2022-12-07T09:42:33;101508.78;;;5.24;94.04
64095;BME280;50353;51.420;5.682;2022-12-07T09:44:59;101506.06;;;5.29;94.19
64095;BME280;50353;51.420;5.682;2022-12-07T09:47:25;101501.59;;;5.31;93.97
64095;BME280;50353;51.420;5.682;2022-12-07T09:49:52;101501.31;;;5.42;93.40
64095;BME280;50353;51.420;5.682;2022-12-07T09:52:27;101506.47;;;5.45;93.58
64095;BME280;50353;51.420;5.682;2022-12-07T09:54:53;101495.03;;;5.48;93.00
64095;BME280;50353;51.420;5.682;2022-12-07T09:57:27;101500.13;;;5.54;92.66
64095;BME280;50353;51.420;5.682;2022-12-07T09:59:56;101499.28;;;5.52;93.09
64095;BME280;50353;51.420;5.682;2022-12-07T10:04:58;101494.22;;;5.46;93.59
64095;BME280;50353;51.420;5.682;2022-12-07T10:07:24;101494.88;;;5.54;93.12
64095;BME280;50353;51.420;5.682;2022-12-07T10:09:49;101493.78;;;5.61;93.70
64095;BME280;50353;51.420;5.682;2022-12-07T10:12:14;101493.38;;;5.75;92.78
64095;BME280;50353;51.420;5.682;2022-12-07T10:14:54;101487.28;;;5.74;92.98
64095;BME280;50353;51.420;5.682;2022-12-07T10:22:54;101472.38;;;5.75;91.99
64095;BME280;50353;51.420;5.682;2022-12-07T10:25:21;101480.81;;;5.86;92.08
64095;BME280;50353;51.420;5.682;2022-12-07T10:28:17;101477.47;;;5.81;91.70
64095;BME280;50353;51.420;5.682;2022-12-07T10:31:03;101463.03;;;5.66;91.92
64095;BME280;50353;51.420;5.682;2022-12-07T10:33:55;101475.06;;;5.73;92.40
64095;BME280;50353;51.420;5.682;2022-12-07T10:39:09;101446.59;;;6.19;90.69
64095;BME280;50353;51.420;5.682;2022-12-07T10:41:35;101451.44;;;6.32;90.53
64095;BME280;50353;51.420;5.682;2022-12-07T10:44:01;101447.34;;;6.50;89.66
64095;BME280;50353;51.420;5.682;2022-12-07T10:46:38;101448.03;;;6.82;88.12
64095;BME280;50353;51.420;5.682;2022-12-07T10:49:25;101448.38;;;6.96;87.79
64095;BME280;50353;51.420;5.682;2022-12-07T10:54:41;101439.28;;;6.56;89.59
64095;BME280;50353;51.420;5.682;2022-12-07T10:58:11;101441.84;;;6.31;89.78
64095;BME280;50353;51.420;5.682;2022-12-07T11:00:25;101432.47;;;6.49;89.18
64095;BME280;50353;51.420;5.682;2022-12-07T11:03:06;101425.25;;;6.55;89.27
64095;BME280;50353;51.420;5.682;2022-12-07T11:10:59;101427.25;;;6.74;88.84
64095;BME280;50353;51.420;5.682;2022-12-07T11:13:50;101420.22;;;7.00;88.63
64095;BME280;50353;51.420;5.682;2022-12-07T11:16:38;101420.69;;;7.11;87.95
64095;BME280;50353;51.420;5.682;2022-12-07T11:21:57;101412.06;;;7.31;86.66
64095;BME280;50353;51.420;5.682;2022-12-07T11:27:37;101391.81;;;7.57;86.69
64095;BME280;50353;51.420;5.682;2022-12-07T11:38:20;101395.22;;;7.59;84.69
64095;BME280;50353;51.420;5.682;2022-12-07T11:40:49;101395.19;;;8.05;83.14
64095;BME280;50353;51.420;5.682;2022-12-07T11:43:21;101394.28;;;7.84;82.95
64095;BME280;50353;51.420;5.682;2022-12-07T11:45:59;101396.47;;;7.72;85.14
64095;BME280;50353;51.420;5.682;2022-12-07T11:48:33;101383.03;;;7.80;84.46
64095;BME280;50353;51.420;5.682;2022-12-07T11:51:01;101388.38;;;7.77;84.04
64095;BME280;50353;51.420;5.682;2022-12-07T11:53:49;101383.75;;;7.84;82.69
64095;BME280;50353;51.420;5.682;2022-12-07T11:56:20;101384.19;;;7.95;82.35
64095;BME280;50353;51.420;5.682;2022-12-07T12:06:37;101378.25;;;6.98;84.62
64095;BME280;50353;51.420;5.682;2022-12-07T12:09:06;101385.75;;;6.84;85.18
64095;BME280;50353;51.420;5.682;2022-12-07T12:11:56;101375.22;;;7.09;85.59
64095;BME280;50353;51.420;5.682;2022-12-07T12:17:17;101369.78;;;7.14;85.30
64095;BME280;50353;51.420;5.682;2022-12-07T12:23:23;101372.91;;;7.00;85.21
64095;BME280;50353;51.420;5.682;2022-12-07T12:25:48;101368.19;;;7.09;85.92
64095;BME280;50353;51.420;5.682;2022-12-07T12:28:28;101364.91;;;6.79;85.80
64095;BME280;50353;51.420;5.682;2022-12-07T12:31:14;101360.88;;;6.94;85.59
64095;BME280;50353;51.420;5.682;2022-12-07T12:33:44;101362.91;;;6.86;85.60
64095;BME280;50353;51.420;5.682;2022-12-07T12:54:20;101330.63;;;7.30;84.44
64095;BME280;50353;51.420;5.682;2022-12-07T12:57:12;101327.25;;;7.26;83.76
64095;BME280;50353;51.420;5.682;2022-12-07T13:02:27;101322.13;;;7.45;84.43
64095;BME280;50353;51.420;5.682;2022-12-07T13:10:34;101315.59;;;7.55;82.37
64095;BME280;50353;51.420;5.682;2022-12-07T13:23:29;101304.09;;;6.65;83.18
64095;BME280;50353;51.420;5.682;2022-12-07T13:28:42;101308.06;;;6.76;82.56
64095;BME280;50353;51.420;5.682;2022-12-07T13:31:36;101297.13;;;6.64;82.77
64095;BME280;50353;51.420;5.682;2022-12-07T13:34:03;101298.47;;;6.75;83.25
64095;BME280;50353;51.420;5.682;2022-12-07T13:36:33;101297.56;;;6.76;83.04
64095;BME280;50353;51.420;5.682;2022-12-07T13:39:17;101286.94;;;6.80;82.81
64095;BME280;50353;51.420;5.682;2022-12-07T13:41:44;101299.69;;;6.65;83.90
64095;BME280;50353;51.420;5.682;2022-12-07T13:44:12;101287.69;;;6.83;83.04
64095;BME280;50353;51.420;5.682;2022-12-07T13:46:55;101292.06;;;6.83;82.99
64095;BME280;50353;51.420;5.682;2022-12-07T13:49:28;101289.75;;;6.75;82.59
64095;BME280;50353;51.420;5.682;2022-12-07T13:51:54;101283.53;;;6.76;82.55
64095;BME280;50353;51.420;5.682;2022-12-07T13:54:31;101279.03;;;6.56;83.22
64095;BME280;50353;51.420;5.682;2022-12-07T13:56:56;101285.59;;;6.68;82.93
64095;BME280;50353;51.420;5.682;2022-12-07T13:59:24;101283.53;;;6.76;83.03
64095;BME280;50353;51.420;5.682;2022-12-07T14:01:51;101279.25;;;6.73;82.92
64095;BME280;50353;51.420;5.682;2022-12-07T14:06:50;101279.56;;;6.89;82.55
64095;BME280;50353;51.420;5.682;2022-12-07T14:09:21;101271.50;;;6.94;82.75
64095;BME280;50353;51.420;5.682;2022-12-07T14:11:48;101271.66;;;6.89;83.09
64095;BME280;50353;51.420;5.682;2022-12-07T14:14:21;101269.09;;;6.88;82.48
64095;BME280;50353;51.420;5.682;2022-12-07T14:17:02;101272.47;;;6.91;82.85
64095;BME280;50353;51.420;5.682;2022-12-07T14:19:46;101257.84;;;7.08;83.04
64095;BME280;50353;51.420;5.682;2022-12-07T14:22:33;101248.78;;;7.15;83.39
64095;BME280;50353;51.420;5.682;2022-12-07T14:25:27;101253.91;;;7.18;83.22
64095;BME280;50353;51.420;5.682;2022-12-07T14:28:00;101257.78;;;7.09;84.05
64095;BME280;50353;51.420;5.682;2022-12-07T14:30:30;101246.69;;;7.01;84.32
64095;BME280;50353;51.420;5.682;2022-12-07T14:33:02;101245.22;;;6.94;85.13
64095;BME280;50353;51.420;5.682;2022-12-07T14:35:28;101244.84;;;7.03;85.13
64095;BME280;50353;51.420;5.682;2022-12-07T14:37:54;101243.09;;;7.04;85.02
64095;BME280;50353;51.420;5.682;2022-12-07T14:40:22;101234.75;;;6.92;85.57
64095;BME280;50353;51.420;5.682;2022-12-07T14:42:51;101233.00;;;6.93;85.93
64095;BME280;50353;51.420;5.682;2022-12-07T14:45:21;101232.75;;;6.99;85.42
64095;BME280;50353;51.420;5.682;2022-12-07T14:47:46;101231.34;;;6.90;85.55
64095;BME280;50353;51.420;5.682;2022-12-07T14:50:18;101234.78;;;6.69;86.21
64095;BME280;50353;51.420;5.682;2022-12-07T14:52:47;101244.50;;;6.67;86.73
64095;BME280;50353;51.420;5.682;2022-12-07T14:55:28;101235.91;;;6.85;85.83
64095;BME280;50353;51.420;5.682;2022-12-07T14:57:54;101232.59;;;6.80;86.28
64095;BME280;50353;51.420;5.682;2022-12-07T15:00:21;101235.41;;;6.75;85.81
64095;BME280;50353;51.420;5.682;2022-12-07T15:02:47;101236.94;;;7.05;85.50